createdAt,value
2022-08-09T00:00:00.880Z,25.56
2022-08-09T00:02:31.527Z,25.55
2022-08-09T00:05:03.012Z,25.55
2022-08-09T00:07:45.293Z,25.55
2022-08-09T00:10:21.239Z,25.55
2022-08-09T00:12:51.623Z,25.55
2022-08-09T00:15:20.159Z,25.55
2022-08-09T00:18:04.743Z,25.55
2022-08-09T00:20:36.674Z,25.53
2022-08-09T00:23:08.372Z,25.53
2022-08-09T00:25:51.835Z,25.55
2022-08-09T00:28:19.306Z,25.55
2022-08-09T00:30:49.418Z,25.52
2022-08-09T00:33:15.986Z,25.51
2022-08-09T00:35:42.934Z,25.52
2022-08-09T00:38:12.550Z,25.52
2022-08-09T00:40:52.740Z,25.52
2022-08-09T00:44:15.861Z,25.51
2022-08-09T00:46:09.449Z,25.51
2022-08-09T00:48:36.718Z,25.51
2022-08-09T00:51:12.078Z,25.52
2022-08-09T00:53:39.956Z,25.51
2022-08-09T00:56:09.640Z,25.53
2022-08-09T00:58:36.884Z,25.53
2022-08-09T01:01:10.444Z,25.55
2022-08-09T01:03:48.579Z,25.53
2022-08-09T01:06:18.978Z,25.54
2022-08-09T01:08:55.730Z,25.53
2022-08-09T01:11:57.852Z,25.54
2022-08-09T01:14:29.097Z,25.53
2022-08-09T01:16:58.854Z,25.54
2022-08-09T01:19:51.783Z,25.54
2022-08-09T01:22:52.117Z,25.55
2022-08-09T01:25:41.586Z,25.54
2022-08-09T01:28:09.554Z,25.54
2022-08-09T01:30:51.516Z,25.55
2022-08-09T01:33:21.782Z,25.54
2022-08-09T01:35:53.579Z,25.55
2022-08-09T01:38:23.270Z,25.55
2022-08-09T01:41:05.413Z,25.56
2022-08-09T01:43:51.137Z,25.56
2022-08-09T01:46:31.580Z,25.54
2022-08-09T01:49:12.762Z,25.55
2022-08-09T01:51:54.357Z,25.53
2022-08-09T01:54:32.921Z,25.50
2022-08-09T01:57:03.943Z,25.43
2022-08-09T01:59:32.710Z,25.37
2022-08-09T02:02:19.421Z,25.28
2022-08-09T02:04:49.702Z,25.26
2022-08-09T02:08:39.247Z,25.29
2022-08-09T02:10:16.349Z,25.18
2022-08-09T02:12:45.131Z,25.15
2022-08-09T02:15:16.711Z,25.07
2022-08-09T02:18:01.704Z,25.10
2022-08-09T02:20:34.216Z,25.12
2022-08-09T02:23:17.880Z,25.20
2022-08-09T02:25:52.422Z,25.22
2022-08-09T02:28:24.103Z,25.22
2022-08-09T02:30:53.938Z,25.25
2022-08-09T02:33:38.265Z,25.28
2022-08-09T02:36:18.494Z,25.30
2022-08-09T02:38:48.856Z,25.30
2022-08-09T02:41:18.103Z,25.32
2022-08-09T02:43:54.956Z,25.34
2022-08-09T02:46:24.392Z,25.35
2022-08-09T02:48:51.595Z,25.35
2022-08-09T02:51:20.258Z,25.37
2022-08-09T02:53:53.122Z,25.39
2022-08-09T02:56:27.981Z,25.40
2022-08-09T02:58:55.219Z,25.42
2022-08-09T03:01:42.688Z,25.42
2022-08-09T03:04:16.603Z,25.44
2022-08-09T03:06:45.862Z,25.42
2022-08-09T03:09:16.238Z,25.43
2022-08-09T03:12:06.750Z,25.45
2022-08-09T03:14:32.169Z,25.45
2022-08-09T03:17:01.648Z,25.44
2022-08-09T03:19:58.309Z,25.44
2022-08-09T03:22:25.030Z,25.46
2022-08-09T03:25:06.492Z,25.46
2022-08-09T03:27:51.861Z,25.39
2022-08-09T03:30:29.832Z,25.34
2022-08-09T03:33:13.360Z,25.29
2022-08-09T03:36:16.001Z,25.32
2022-08-09T03:38:31.543Z,25.34
2022-08-09T03:40:58.326Z,25.37
2022-08-09T03:43:25.094Z,25.37
2022-08-09T03:46:03.186Z,25.39
2022-08-09T03:48:51.338Z,25.41
2022-08-09T03:51:55.107Z,25.40
2022-08-09T03:54:06.501Z,25.43
2022-08-09T03:56:38.073Z,25.42
2022-08-09T03:59:08.787Z,25.41
2022-08-09T04:01:44.337Z,25.41
2022-08-09T04:04:14.664Z,25.33
2022-08-09T04:06:43.988Z,25.32
2022-08-09T04:09:44.445Z,25.33
2022-08-09T04:12:02.536Z,25.37
2022-08-09T04:14:53.054Z,25.37
2022-08-09T04:17:16.032Z,25.39
2022-08-09T04:19:51.254Z,25.39
2022-08-09T04:22:22.277Z,25.40
2022-08-09T04:24:48.713Z,25.39
2022-08-09T04:27:15.147Z,25.40
2022-08-09T04:29:49.638Z,25.41
2022-08-09T04:32:16.226Z,25.40
2022-08-09T04:34:54.470Z,25.31
2022-08-09T04:37:24.141Z,25.21
2022-08-09T04:40:11.569Z,25.11
2022-08-09T04:42:45.960Z,25.00
2022-08-09T04:45:16.454Z,25.10
2022-08-09T04:48:00.994Z,25.15
2022-08-09T04:50:35.082Z,25.22
2022-08-09T04:53:11.595Z,25.25
2022-08-09T04:55:57.478Z,25.18
2022-08-09T04:58:26.750Z,25.18
2022-08-09T05:00:54.493Z,25.23
2022-08-09T05:03:41.156Z,25.24
2022-08-09T05:06:08.569Z,25.27
2022-08-09T05:08:35.196Z,25.29
2022-08-09T05:11:02.419Z,25.31
2022-08-09T05:13:29.159Z,25.31
2022-08-09T05:15:59.733Z,25.33
2022-08-09T05:18:38.364Z,25.32
2022-08-09T05:21:24.201Z,25.31
2022-08-09T05:23:59.673Z,25.33
2022-08-09T05:26:37.252Z,25.33
2022-08-09T05:29:17.368Z,25.36
2022-08-09T05:31:56.334Z,25.38
2022-08-09T05:34:29.988Z,25.38
2022-08-09T05:36:58.622Z,25.32
2022-08-09T05:39:30.037Z,25.28
2022-08-09T05:42:04.870Z,25.25
2022-08-09T05:44:34.844Z,25.24
2022-08-09T05:47:05.455Z,25.19
2022-08-09T05:50:30.682Z,25.18
2022-08-09T05:52:19.367Z,25.18
2022-08-09T05:54:46.229Z,25.12
2022-08-09T05:57:17.666Z,25.15
2022-08-09T05:59:45.840Z,25.18
2022-08-09T06:02:12.336Z,25.23
2022-08-09T06:04:44.766Z,25.25
2022-08-09T06:07:21.329Z,25.26
2022-08-09T06:10:01.710Z,25.28
2022-08-09T06:12:28.438Z,25.29
2022-08-09T06:14:55.255Z,25.31
2022-08-09T06:17:27.701Z,25.34
2022-08-09T06:20:06.799Z,25.35
2022-08-09T06:22:33.371Z,25.36
2022-08-09T06:25:00.067Z,25.38
2022-08-09T06:27:26.515Z,25.39
2022-08-09T06:30:10.333Z,25.40
2022-08-09T06:32:59.691Z,25.43
2022-08-09T06:35:56.548Z,25.42
2022-08-09T06:38:09.969Z,25.43
2022-08-09T06:40:38.296Z,25.46
2022-08-09T06:43:10.601Z,25.46
2022-08-09T06:46:05.283Z,25.47
2022-08-09T06:48:30.219Z,25.46
2022-08-09T06:50:58.057Z,25.45
2022-08-09T06:53:24.852Z,25.47
2022-08-09T06:55:52.149Z,25.47
2022-08-09T07:00:46.550Z,25.48
2022-08-09T07:01:05.571Z,25.49
2022-08-09T07:03:39.515Z,25.50
2022-08-09T07:06:18.974Z,25.51
2022-08-09T07:08:46.836Z,25.53
2022-08-09T07:11:23.329Z,25.54
2022-08-09T07:14:04.846Z,25.58
2022-08-09T07:16:42.656Z,25.59
2022-08-09T07:19:18.731Z,25.63
2022-08-09T07:21:57.586Z,25.65
2022-08-09T07:24:32.143Z,25.66
2022-08-09T07:27:10.832Z,25.71
2022-08-09T07:29:58.419Z,25.72
2022-08-09T07:32:32.863Z,25.73
2022-08-09T07:35:10.824Z,25.77
2022-08-09T07:37:45.681Z,25.78
2022-08-09T07:40:18.642Z,25.80
2022-08-09T07:42:54.470Z,25.81
2022-08-09T07:45:38.325Z,25.83
2022-08-09T07:48:29.653Z,25.86
2022-08-09T07:51:09.158Z,25.87
2022-08-09T07:54:05.752Z,25.89
2022-08-09T07:56:28.166Z,25.92
2022-08-09T07:58:59.525Z,25.94
2022-08-09T08:01:32.825Z,25.95
2022-08-09T08:03:59.939Z,25.98
2022-08-09T08:06:31.641Z,25.99
2022-08-09T08:09:04.023Z,25.98
2022-08-09T08:12:24.073Z,25.99
2022-08-09T08:14:18.445Z,26.00
2022-08-09T08:17:00.493Z,26.03
2022-08-09T08:19:34.174Z,26.04
2022-08-09T08:22:01.737Z,26.06
2022-08-09T08:24:35.277Z,26.08
2022-08-09T08:27:16.517Z,26.10
2022-08-09T08:29:48.762Z,26.10
2022-08-09T08:32:24.339Z,26.12
2022-08-09T08:35:04.133Z,26.13
2022-08-09T08:37:41.430Z,26.13
2022-08-09T08:40:17.258Z,26.13
2022-08-09T08:42:47.373Z,26.15
2022-08-09T08:45:14.502Z,26.16
2022-08-09T08:47:42.831Z,26.19
2022-08-09T08:50:17.705Z,26.22
2022-08-09T08:52:57.889Z,26.24
2022-08-09T08:55:27.353Z,26.25
2022-08-09T08:57:57.578Z,26.27
2022-08-09T09:00:27.904Z,26.28
2022-08-09T09:03:08.720Z,26.27
2022-08-09T09:05:59.855Z,26.27
2022-08-09T09:08:40.454Z,26.29
2022-08-09T09:11:08.013Z,26.28
2022-08-09T09:13:55.275Z,26.28
2022-08-09T09:16:31.077Z,26.30
2022-08-09T09:19:22.662Z,26.29
2022-08-09T09:22:12.578Z,26.30
2022-08-09T09:24:39.771Z,26.32
2022-08-09T09:27:22.097Z,26.33
2022-08-09T09:30:14.203Z,26.35
2022-08-09T09:32:43.695Z,26.33
2022-08-09T09:35:12.917Z,26.33
2022-08-09T09:37:45.520Z,26.34
2022-08-09T09:40:12.450Z,26.39
2022-08-09T09:42:42.812Z,26.39
2022-08-09T09:45:09.913Z,26.40
2022-08-09T09:47:56.526Z,26.41
2022-08-09T09:50:42.181Z,26.42
2022-08-09T09:53:20.247Z,26.43
2022-08-09T09:56:04.435Z,26.43
2022-08-09T09:58:45.688Z,26.42
2022-08-09T10:01:31.332Z,26.45
2022-08-09T10:04:08.864Z,26.48
2022-08-09T10:06:46.961Z,26.50
2022-08-09T10:09:22.349Z,26.49
2022-08-09T10:12:12.227Z,26.51
2022-08-09T10:14:43.942Z,26.53
2022-08-09T10:17:39.339Z,26.54
2022-08-09T10:20:03.310Z,26.55
2022-08-09T10:22:39.194Z,26.55
2022-08-09T10:25:11.241Z,26.58
2022-08-09T10:27:56.661Z,26.61
2022-08-09T10:33:29.464Z,26.61
2022-08-09T10:36:00.757Z,26.61
2022-08-09T10:38:54.390Z,26.60
2022-08-09T10:41:15.493Z,26.64
2022-08-09T10:43:58.747Z,26.66
2022-08-09T10:47:01.112Z,26.69
2022-08-09T10:49:51.299Z,26.71
2022-08-09T10:52:44.775Z,26.71
2022-08-09T10:55:28.527Z,26.68
2022-08-09T10:58:02.912Z,26.70
2022-08-09T11:00:29.552Z,26.68
2022-08-09T11:03:16.200Z,26.68
2022-08-09T11:06:03.343Z,26.69
2022-08-09T11:08:46.965Z,26.71
2022-08-09T11:11:15.669Z,26.71
2022-08-09T11:13:50.384Z,26.73
2022-08-09T11:16:36.204Z,26.73
2022-08-09T11:19:07.870Z,26.73
2022-08-09T11:21:56.831Z,26.72
2022-08-09T11:24:51.180Z,26.70
2022-08-09T11:28:04.519Z,26.71
2022-08-09T11:30:32.757Z,26.70
2022-08-09T11:33:05.700Z,26.68
2022-08-09T11:35:49.345Z,26.70
2022-08-09T11:38:32.275Z,26.68
2022-08-09T11:41:23.151Z,26.68
2022-08-09T11:43:49.662Z,26.67
2022-08-09T11:46:32.976Z,26.67
2022-08-09T11:49:00.263Z,26.67
2022-08-09T11:52:36.722Z,26.68
2022-08-09T11:54:28.617Z,26.66
2022-08-09T11:57:28.493Z,26.66
2022-08-09T12:00:13.051Z,26.65
2022-08-09T12:02:43.789Z,26.65
2022-08-09T12:05:23.003Z,26.65
2022-08-09T12:07:50.073Z,26.66
2022-08-09T12:10:39.373Z,26.66
2022-08-09T12:14:09.601Z,26.65
2022-08-09T12:15:58.825Z,26.66
2022-08-09T12:18:29.600Z,26.64
2022-08-09T12:20:59.322Z,26.63
2022-08-09T12:23:57.852Z,26.63
2022-08-09T12:26:19.641Z,26.65
2022-08-09T12:29:15.410Z,26.68
2022-08-09T12:32:02.566Z,26.68
2022-08-09T12:34:36.749Z,26.69
2022-08-09T12:37:21.318Z,26.70
2022-08-09T12:40:11.677Z,26.70
2022-08-09T12:42:43.684Z,26.67
2022-08-09T12:45:33.764Z,26.68
2022-08-09T12:47:59.668Z,26.67
2022-08-09T12:50:27.251Z,26.65
2022-08-09T12:53:08.442Z,26.67
2022-08-09T12:56:16.082Z,26.66
2022-08-09T12:58:24.170Z,26.66
2022-08-09T13:00:54.955Z,26.65
2022-08-09T13:03:58.978Z,26.63
2022-08-09T13:06:26.095Z,26.63
2022-08-09T13:09:09.859Z,26.62
2022-08-09T13:11:39.532Z,26.62
2022-08-09T13:14:41.026Z,26.61
2022-08-09T13:17:16.183Z,26.60
2022-08-09T13:20:06.766Z,26.60
2022-08-09T13:23:05.564Z,26.57
2022-08-09T13:25:42.356Z,26.56
2022-08-09T13:28:24.485Z,26.57
2022-08-09T13:32:17.841Z,26.55
2022-08-09T13:33:53.619Z,26.55
2022-08-09T13:36:38.170Z,26.54
2022-08-09T13:41:51.304Z,26.53
2022-08-09T13:42:01.562Z,26.52
2022-08-09T13:44:28.820Z,26.50
2022-08-09T13:47:26.819Z,26.49
2022-08-09T13:49:56.471Z,26.49
2022-08-09T13:52:30.172Z,26.48
2022-08-09T13:54:58.743Z,26.49
2022-08-09T13:57:35.360Z,26.48
2022-08-09T14:00:08.387Z,26.49
2022-08-09T14:02:42.342Z,26.49
2022-08-09T14:05:57.429Z,26.48
2022-08-09T14:08:10.524Z,26.48
2022-08-09T14:10:49.015Z,26.50
2022-08-09T14:13:27.669Z,26.50
2022-08-09T14:16:09.511Z,26.49
2022-08-09T14:18:37.732Z,26.50
2022-08-09T14:21:04.218Z,26.50
2022-08-09T14:23:41.025Z,26.50
2022-08-09T14:26:20.801Z,26.51
2022-08-09T14:28:47.787Z,26.50
2022-08-09T14:31:14.221Z,26.50
2022-08-09T14:33:40.728Z,26.52
2022-08-09T14:36:20.402Z,26.52
2022-08-09T14:38:47.474Z,26.53
2022-08-09T14:41:23.953Z,26.53
2022-08-09T14:44:02.879Z,26.53
2022-08-09T14:46:51.238Z,26.53
2022-08-09T14:49:16.895Z,26.52
2022-08-09T14:51:43.349Z,26.54
2022-08-09T14:54:10.269Z,26.55
2022-08-09T14:56:57.510Z,26.54
2022-08-09T14:59:23.533Z,26.54
2022-08-09T15:01:50.230Z,26.55
2022-08-09T15:04:16.768Z,26.53
2022-08-09T15:06:43.359Z,26.53
2022-08-09T15:09:16.767Z,26.53
2022-08-09T15:12:03.725Z,26.53
2022-08-09T15:14:33.991Z,26.52
2022-08-09T15:17:00.871Z,26.51
2022-08-09T15:19:36.049Z,26.50
2022-08-09T15:22:03.236Z,26.49
2022-08-09T15:24:29.976Z,26.49
2022-08-09T15:26:57.771Z,26.48
2022-08-09T15:30:56.502Z,26.47
2022-08-09T15:32:29.691Z,26.46
2022-08-09T15:34:59.890Z,26.44
2022-08-09T15:37:57.092Z,26.45
2022-08-09T15:40:31.611Z,26.43
2022-08-09T15:42:59.312Z,26.44
2022-08-09T15:45:29.744Z,26.43
2022-08-09T15:48:06.571Z,26.41
2022-08-09T15:50:44.039Z,26.40
2022-08-09T15:54:00.154Z,26.39
2022-08-09T15:56:20.967Z,26.39
2022-08-09T15:58:44.420Z,26.39
2022-08-09T16:01:13.361Z,26.38
2022-08-09T16:03:41.711Z,26.38
2022-08-09T16:06:29.283Z,26.37
2022-08-09T16:08:56.096Z,26.35
2022-08-09T16:11:22.679Z,26.35
2022-08-09T16:14:02.582Z,26.34
2022-08-09T16:16:34.670Z,26.36
2022-08-09T16:19:04.464Z,26.33
2022-08-09T16:21:31.670Z,26.35
2022-08-09T16:24:02.453Z,26.34
2022-08-09T16:26:35.125Z,26.35
2022-08-09T16:29:11.111Z,26.34
2022-08-09T16:32:18.137Z,26.34
2022-08-09T16:34:25.422Z,26.34
2022-08-09T16:36:52.690Z,26.35
2022-08-09T16:39:21.349Z,26.36
2022-08-09T16:42:04.276Z,26.34
2022-08-09T16:44:32.150Z,26.35
2022-08-09T16:47:01.863Z,26.33
2022-08-09T16:50:32.660Z,26.35
2022-08-09T16:52:17.341Z,26.35
2022-08-09T16:54:45.759Z,26.35
2022-08-09T16:57:12.376Z,26.36
2022-08-09T16:59:43.856Z,26.34
2022-08-09T17:02:17.771Z,26.34
2022-08-09T17:04:50.225Z,26.34
2022-08-09T17:08:42.702Z,26.35
2022-08-09T17:10:07.342Z,26.34
2022-08-09T17:12:35.570Z,26.35
2022-08-09T17:15:02.380Z,26.33
2022-08-09T17:17:50.669Z,26.34
2022-08-09T17:20:32.592Z,26.33
2022-08-09T17:23:03.598Z,26.33
2022-08-09T17:25:31.846Z,26.33
2022-08-09T17:28:04.280Z,26.32
2022-08-09T17:30:31.814Z,26.32
2022-08-09T17:33:05.663Z,26.32
2022-08-09T17:35:48.575Z,26.33
2022-08-09T17:38:24.441Z,26.33
2022-08-09T17:40:57.368Z,26.33
2022-08-09T17:43:34.180Z,26.32
2022-08-09T17:46:07.025Z,26.32
2022-08-09T17:48:39.893Z,26.32
2022-08-09T17:51:09.716Z,26.32
2022-08-09T17:53:48.210Z,26.30
2022-08-09T17:56:29.257Z,26.31
2022-08-09T17:59:09.467Z,26.31
2022-08-09T18:01:40.979Z,26.30
2022-08-09T18:04:25.348Z,26.30
2022-08-09T18:07:23.759Z,26.30
2022-08-09T18:09:41.493Z,26.30
2022-08-09T18:12:19.739Z,26.30
2022-08-09T18:14:54.211Z,26.28
2022-08-09T18:17:27.549Z,26.29
2022-08-09T18:20:56.514Z,26.29
2022-08-09T18:22:55.130Z,26.28
2022-08-09T18:25:21.589Z,26.29
2022-08-09T18:28:21.623Z,26.28
2022-08-09T18:30:54.596Z,26.27
2022-08-09T18:33:23.381Z,26.27
2022-08-09T18:35:59.497Z,26.27
2022-08-09T18:38:27.403Z,26.25
2022-08-09T18:40:55.351Z,26.24
2022-08-09T18:43:22.692Z,26.24
2022-08-09T18:46:47.038Z,26.24
2022-08-09T18:48:36.422Z,26.24
2022-08-09T18:51:02.874Z,26.23
2022-08-09T18:53:34.560Z,26.23
2022-08-09T18:56:17.006Z,26.23
2022-08-09T18:58:46.487Z,26.22
2022-08-09T19:01:17.978Z,26.23
2022-08-09T19:04:01.369Z,26.22
2022-08-09T19:06:32.662Z,26.23
2022-08-09T19:09:02.937Z,26.21
2022-08-09T19:11:35.429Z,26.21
2022-08-09T19:14:06.434Z,26.21
2022-08-09T19:16:35.982Z,26.21
2022-08-09T19:19:23.764Z,26.21
2022-08-09T19:21:52.067Z,26.21
2022-08-09T19:24:37.397Z,26.20
2022-08-09T19:27:05.996Z,26.19
2022-08-09T19:30:20.862Z,26.16
2022-08-09T19:32:21.068Z,26.14
2022-08-09T19:34:54.041Z,26.13
2022-08-09T19:37:20.773Z,26.13
2022-08-09T19:40:03.999Z,26.13
2022-08-09T19:42:32.326Z,26.11
2022-08-09T19:44:59.061Z,26.10
2022-08-09T19:47:27.096Z,26.08
2022-08-09T19:50:09.443Z,26.06
2022-08-09T19:52:49.323Z,26.02
2022-08-09T19:55:19.406Z,26.03
2022-08-09T19:57:48.763Z,26.01
2022-08-09T20:00:15.965Z,26.00
2022-08-09T20:04:16.899Z,25.99
2022-08-09T20:05:30.776Z,25.98
2022-08-09T20:08:12.756Z,25.97
2022-08-09T20:10:43.111Z,25.96
2022-08-09T20:13:10.998Z,25.93
2022-08-09T20:16:33.754Z,25.92
2022-08-09T20:18:27.790Z,25.92
2022-08-09T20:20:55.618Z,25.92
2022-08-09T20:23:23.701Z,25.94
2022-08-09T20:25:52.215Z,25.96
2022-08-09T20:28:27.382Z,25.94
2022-08-09T20:31:01.066Z,25.94
2022-08-09T20:33:38.895Z,25.94
2022-08-09T20:36:08.691Z,25.96
2022-08-09T20:38:52.746Z,25.96
2022-08-09T20:41:32.296Z,25.96
2022-08-09T20:44:03.868Z,25.94
2022-08-09T20:46:43.374Z,25.94
2022-08-09T20:49:11.906Z,25.95
2022-08-09T20:51:41.038Z,25.95
2022-08-09T20:54:12.727Z,25.97
2022-08-09T20:56:43.693Z,25.96
2022-08-09T20:59:17.151Z,25.93
2022-08-09T21:01:51.303Z,25.92
2022-08-09T21:05:54.482Z,25.90
2022-08-09T21:07:11.917Z,25.86
2022-08-09T21:09:41.773Z,25.82
2022-08-09T21:14:41.761Z,25.76
2022-08-09T21:18:21.120Z,25.73
2022-08-09T21:20:17.937Z,25.67
2022-08-09T21:22:42.990Z,25.72
2022-08-09T21:25:37.915Z,25.74
2022-08-09T21:28:05.325Z,25.76
2022-08-09T21:30:34.446Z,25.79
2022-08-09T21:33:06.720Z,25.81
2022-08-09T21:35:39.340Z,25.81
2022-08-09T21:38:21.053Z,25.83
2022-08-09T21:40:58.351Z,25.85
2022-08-09T21:43:56.415Z,25.86
2022-08-09T21:46:12.182Z,25.88
2022-08-09T21:48:42.578Z,25.91
2022-08-09T21:51:18.101Z,25.93
2022-08-09T21:53:54.905Z,25.95
2022-08-09T21:56:33.788Z,25.96
2022-08-09T21:59:09.182Z,25.97
2022-08-09T22:01:58.980Z,25.98
2022-08-09T22:04:23.118Z,26.00
2022-08-09T22:07:09.597Z,26.02
2022-08-09T22:09:38.648Z,26.02
2022-08-09T22:12:18.728Z,26.02
2022-08-09T22:14:51.403Z,26.01
2022-08-09T22:17:17.867Z,26.03
2022-08-09T22:19:59.261Z,26.00
2022-08-09T22:22:27.648Z,25.98
2022-08-09T22:26:07.089Z,25.96
2022-08-09T22:27:40.874Z,25.92
2022-08-09T22:30:08.993Z,25.87
2022-08-09T22:32:35.436Z,25.87
2022-08-09T22:35:06.239Z,25.87
2022-08-09T22:37:40.025Z,25.91
2022-08-09T22:40:08.698Z,25.94
2022-08-09T22:42:35.478Z,25.95
2022-08-09T22:48:04.719Z,25.95
2022-08-09T22:48:15.098Z,25.97
2022-08-09T22:50:34.907Z,25.97
2022-08-09T22:53:03.966Z,25.99
2022-08-09T22:56:07.198Z,25.98
2022-08-09T22:58:20.212Z,25.97
2022-08-09T23:00:58.639Z,25.97
2022-08-09T23:04:02.505Z,25.96
2022-08-09T23:06:14.157Z,25.99
2022-08-09T23:08:44.342Z,25.99
2022-08-09T23:11:17.101Z,25.99
2022-08-09T23:13:43.817Z,26.00
2022-08-09T23:16:10.564Z,26.01
2022-08-09T23:18:37.025Z,26.00
2022-08-09T23:21:03.524Z,26.02
2022-08-09T23:23:30.267Z,26.01
2022-08-09T23:25:56.806Z,26.02
2022-08-09T23:28:23.307Z,26.04
2022-08-09T23:30:51.303Z,26.01
2022-08-09T23:33:19.438Z,26.04
2022-08-09T23:36:04.414Z,26.04
2022-08-09T23:38:32.323Z,26.03
2022-08-09T23:40:58.826Z,26.04
2022-08-09T23:43:25.341Z,26.03
2022-08-09T23:45:51.802Z,26.05
2022-08-09T23:48:19.553Z,26.04
2022-08-09T23:50:46.033Z,26.04
2022-08-09T23:53:12.522Z,26.06
2022-08-09T23:55:38.965Z,26.04
2022-08-09T23:58:10.815Z,26.04
